Yancopin, Arkansas
Current Conditions -  °F | °C
As of 7:35 AM on Wednesday 22 Oct 2014 (Local Time) from KRNV Reporting Station
Clear Clear  
Wind Chill: 52°   Ceiling: Unl
Heat Index: 52°   Visibility: 10mi
Dew Point: 50°   Wind: 6mph
Humidity: 92%   Direction: 50°NE
Pressure: 30.17"   Gusts: NA
Location:  33.8911°N, 91.2569°W
Report Text: KRNV 221235Z AUTO 05005KT 10SM CLR 11/10 A3017 RMK AO2 T01100098
Loading
Personal Weather Stations






























Interactive Weather Map
Tropical Storm Tracking
New forecast layout! Learn more

10-Day Weather Forecast

Advertisements
Track Severe Weather on mobile